Karratha King Bay, Australia
Current Conditions -  °F | °C
As of 10:30 AM on Friday 28 Nov 2014 (Local Time) from YPPD Reporting Station
Clear Clear  
Wind Chill: 95°   Ceiling: Unl
Heat Index: 97°   Visibility: 6mi
Dew Point: 64°   Wind: 12mph
Humidity: 36%   Direction: 360°N
Pressure: 29.8"   Gusts: NA
Location:  20.62°S, 116.75°E
Report Text: YPPD 280230Z AUTO 36010KT 9999 // NCD 35/18 Q1009
Loading
Personal Weather Stations






























Interactive Weather Map New forecast layout! Learn more

10-Day Weather Forecast

Advertisements
Track Severe Weather on mobile